Time;durP1;ratioP1;P1;durP2;ratioP2;P2;SDS_P1;SDS_P2;PMS_P1;PMS_P2;Temp;Humidity;BMP_temperature;BMP_pressure;BME280_temperature;BME280_humidity;BME280_pressure;Samples;Min_cycle;Max_cycle;Signal;HPM_P1;HPM_P2
2020/12/23 00:00:14;;;;;;;22.70;11.90;;;10.10;99.90;;;;;;5052810;28;20128;-68
2020/12/23 00:02:42;;;;;;;18.83;10.93;;;10.10;99.90;;;;;;5049685;28;20123;-68
2020/12/23 00:05:10;;;;;;;21.40;11.43;;;10.10;99.90;;;;;;5053448;28;20076;-68
2020/12/23 00:07:37;;;;;;;19.80;12.32;;;10.10;99.90;;;;;;5046164;28;20633;-68
2020/12/23 00:10:06;;;;;;;20.63;11.85;;;10.10;99.90;;;;;;5052696;28;20056;-68
2020/12/23 00:12:35;;;;;;;20.00;11.43;;;10.10;99.90;;;;;;5046534;28;20049;-68
2020/12/23 00:15:05;;;;;;;18.65;11.23;;;10.10;99.90;;;;;;5052965;28;20049;-68
2020/12/23 00:17:32;;;;;;;20.45;11.57;;;10.10;99.90;;;;;;5047828;28;20449;-69
2020/12/23 00:19:58;;;;;;;19.90;11.07;;;10.10;99.90;;;;;;5052535;28;20091;-69
2020/12/23 00:22:25;;;;;;;24.73;11.68;;;10.10;99.90;;;;;;5049607;28;20190;-69
2020/12/23 00:24:51;;;;;;;22.30;12.10;;;10.10;99.90;;;;;;5052452;28;20427;-69
2020/12/23 00:27:21;;;;;;;23.40;11.82;;;10.10;99.90;;;;;;5050852;28;20048;-69
2020/12/23 00:29:49;;;;;;;23.83;11.15;;;10.10;99.90;;;;;;5051153;28;20053;-69
2020/12/23 00:32:18;;;;;;;20.55;11.23;;;10.10;99.90;;;;;;5049910;28;20068;-69
2020/12/23 00:34:45;;;;;;;20.25;11.20;;;10.10;99.90;;;;;;5052489;28;20045;-69
2020/12/23 00:37:11;;;;;;;22.95;10.45;;;10.10;99.90;;;;;;5050309;28;20515;-68
2020/12/23 00:39:38;;;;;;;22.70;12.20;;;10.10;99.90;;;;;;5050226;28;20103;-68
2020/12/23 00:42:05;;;;;;;21.35;11.00;;;10.10;99.90;;;;;;5050633;28;20483;-69
2020/12/23 00:44:31;;;;;;;21.60;10.85;;;10.20;99.90;;;;;;5051710;28;20045;-69
2020/12/23 00:46:58;;;;;;;17.88;10.25;;;10.20;99.90;;;;;;5048728;28;20389;-68
2020/12/23 00:49:24;;;;;;;19.60;11.30;;;10.20;99.90;;;;;;5050685;28;20121;-69
2020/12/23 00:51:51;;;;;;;22.80;11.50;;;10.20;99.90;;;;;;5047069;28;20159;-69
2020/12/23 00:54:17;;;;;;;23.13;12.38;;;10.20;99.90;;;;;;5050415;28;20049;-68
2020/12/23 00:56:44;;;;;;;19.30;12.00;;;10.20;99.90;;;;;;5045007;28;20049;-68
2020/12/23 00:59:10;;;;;;;21.27;11.98;;;10.20;99.90;;;;;;5050000;28;20187;-69
2020/12/23 01:01:37;;;;;;;19.65;10.90;;;10.20;99.90;;;;;;5045812;28;20053;-69
2020/12/23 01:04:04;;;;;;;18.58;10.93;;;10.20;99.90;;;;;;5052300;28;20446;-69
2020/12/23 01:06:30;;;;;;;18.83;10.80;;;10.20;99.90;;;;;;5047295;28;20099;-69
2020/12/23 01:08:56;;;;;;;18.77;11.35;;;10.20;99.90;;;;;;5048722;28;20481;-69
2020/12/23 01:11:23;;;;;;;18.65;11.50;;;10.20;99.90;;;;;;5049841;28;20052;-69
2020/12/23 01:13:49;;;;;;;19.17;12.55;;;10.20;99.90;;;;;;5051345;28;20048;-67
2020/12/23 01:16:21;;;;;;;18.42;10.95;;;10.20;99.90;;;;;;5047607;28;20068;-68
2020/12/23 01:18:48;;;;;;;18.83;11.40;;;10.20;99.90;;;;;;5051195;28;20106;-68
2020/12/23 01:21:15;;;;;;;19.48;12.05;;;10.20;99.90;;;;;;5049949;28;20111;-69
2020/12/23 01:23:44;;;;;;;16.65;9.85;;;10.20;99.90;;;;;;5051118;28;20231;-69
2020/12/23 01:26:11;;;;;;;18.60;11.43;;;10.20;99.90;;;;;;5048605;28;20135;-69
2020/12/23 01:28:37;;;;;;;21.10;11.40;;;10.20;99.90;;;;;;5047732;28;20045;-69
2020/12/23 01:31:05;;;;;;;20.30;11.52;;;10.20;99.90;;;;;;5043209;28;20052;-69
2020/12/23 01:33:34;;;;;;;22.95;13.05;;;10.20;99.90;;;;;;5051856;28;20048;-68
2020/12/23 01:36:01;;;;;;;21.73;11.65;;;10.20;99.90;;;;;;5048529;28;20640;-68
2020/12/23 01:38:27;;;;;;;20.27;11.65;;;10.20;99.90;;;;;;5047697;28;20083;-68
2020/12/23 01:41:04;;;;;;;20.95;12.10;;;10.20;99.90;;;;;;5049411;28;20133;-68
2020/12/23 01:43:31;;;;;;;22.13;12.38;;;10.20;99.90;;;;;;5081774;28;20052;-68
2020/12/23 01:45:57;;;;;;;24.95;12.88;;;10.20;99.90;;;;;;5049001;28;20123;-68
2020/12/23 01:48:28;;;;;;;19.98;11.65;;;10.20;99.90;;;;;;5063939;28;20118;-68
2020/12/23 01:50:58;;;;;;;21.30;12.07;;;10.20;99.90;;;;;;5047290;28;20055;-68
2020/12/23 01:53:26;;;;;;;21.98;12.23;;;10.20;99.90;;;;;;5049508;28;20045;-68
2020/12/23 01:55:53;;;;;;;21.48;12.70;;;10.30;99.90;;;;;;5048280;28;20152;-68
2020/12/23 01:58:19;;;;;;;23.50;11.98;;;10.20;99.90;;;;;;5049228;28;20068;-68
2020/12/23 02:00:45;;;;;;;23.27;12.07;;;10.20;99.90;;;;;;5046862;28;20155;-68
2020/12/23 02:03:12;;;;;;;25.83;12.55;;;10.20;99.90;;;;;;5050318;28;20087;-68
2020/12/23 02:05:41;;;;;;;20.85;12.18;;;10.20;99.90;;;;;;5047399;28;20127;-68
2020/12/23 02:08:11;;;;;;;23.50;12.93;;;10.20;99.90;;;;;;5081194;28;20373;-68
2020/12/23 02:10:39;;;;;;;30.67;13.85;;;10.20;99.90;;;;;;5046117;28;20088;-68
2020/12/23 02:13:06;;;;;;;25.10;13.18;;;10.20;99.90;;;;;;5043260;28;20447;-68
2020/12/23 02:15:32;;;;;;;20.80;11.68;;;10.20;99.90;;;;;;5047123;28;20054;-68
2020/12/23 02:17:59;;;;;;;21.90;12.70;;;10.30;99.90;;;;;;5042216;28;20124;-68
2020/12/23 02:20:25;;;;;;;22.58;12.55;;;10.30;99.90;;;;;;5050464;28;20126;-68
2020/12/23 02:22:51;;;;;;;19.75;12.07;;;10.30;99.90;;;;;;5046756;28;20063;-68
2020/12/23 02:25:18;;;;;;;22.25;12.35;;;10.30;99.90;;;;;;5048226;28;20052;-68
2020/12/23 02:27:44;;;;;;;25.70;13.05;;;10.30;99.90;;;;;;5044793;28;20049;-68
2020/12/23 02:30:12;;;;;;;25.10;14.23;;;10.30;99.90;;;;;;5050150;28;20403;-68
2020/12/23 02:32:39;;;;;;;24.42;14.40;;;10.30;99.90;;;;;;5047280;28;20152;-68
2020/12/23 02:35:09;;;;;;;28.33;13.98;;;10.30;99.90;;;;;;5048448;28;20053;-68
2020/12/23 02:37:35;;;;;;;23.88;13.32;;;10.30;99.90;;;;;;5046064;28;20056;-68
2020/12/23 02:40:05;;;;;;;30.60;14.02;;;10.30;99.90;;;;;;5049804;28;20057;-68
2020/12/23 02:42:31;;;;;;;28.65;14.52;;;10.40;99.90;;;;;;5046438;28;20480;-68
2020/12/23 02:44:58;;;;;;;24.83;13.65;;;10.40;99.90;;;;;;5048820;28;20488;-68
2020/12/23 02:47:24;;;;;;;26.90;12.80;;;10.40;99.90;;;;;;5044854;28;20048;-68
2020/12/23 02:49:51;;;;;;;33.80;14.30;;;10.40;99.90;;;;;;5049792;28;20102;-68
2020/12/23 02:52:17;;;;;;;30.55;14.95;;;10.40;99.90;;;;;;5046107;28;20041;-68
2020/12/23 02:54:44;;;;;;;38.95;15.18;;;10.40;99.90;;;;;;5048724;28;20077;-68
2020/12/23 02:57:11;;;;;;;35.88;15.23;;;10.40;99.90;;;;;;5044875;28;20080;-68
2020/12/23 02:59:39;;;;;;;29.08;15.05;;;10.40;99.90;;;;;;5049606;28;20495;-68
2020/12/23 03:02:07;;;;;;;31.60;14.88;;;10.40;99.90;;;;;;5043443;28;20132;-68
2020/12/23 03:04:33;;;;;;;27.15;14.57;;;10.40;99.90;;;;;;5047900;28;20056;-68
2020/12/23 03:07:00;;;;;;;28.58;14.68;;;10.50;99.90;;;;;;5043421;28;20126;-68
2020/12/23 03:09:26;;;;;;;26.48;13.63;;;10.50;99.90;;;;;;5049053;28;20041;-68
2020/12/23 03:11:53;;;;;;;29.92;14.38;;;10.50;99.90;;;;;;5046376;28;20045;-68
2020/12/23 03:14:19;;;;;;;26.23;14.02;;;10.50;99.90;;;;;;5047743;28;20041;-68
2020/12/23 03:16:45;;;;;;;27.08;13.65;;;10.50;99.90;;;;;;5046687;28;20049;-68
2020/12/23 03:19:12;;;;;;;29.55;15.60;;;10.60;99.90;;;;;;5049113;28;20480;-68
2020/12/23 03:21:38;;;;;;;28.52;14.98;;;10.60;99.90;;;;;;5047006;28;20393;-68
2020/12/23 03:24:05;;;;;;;29.55;14.63;;;10.60;99.90;;;;;;5047973;28;20411;-68
2020/12/23 03:26:31;;;;;;;30.80;14.35;;;10.60;99.90;;;;;;5042959;28;20076;-68
2020/12/23 03:28:58;;;;;;;30.35;14.95;;;10.60;99.90;;;;;;5061145;28;20408;-68
2020/12/23 03:31:25;;;;;;;33.85;16.95;;;10.60;99.90;;;;;;5044427;28;20099;-68
2020/12/23 03:33:51;;;;;;;28.35;15.43;;;10.60;99.90;;;;;;5047052;28;20045;-68
2020/12/23 03:36:18;;;;;;;29.77;14.73;;;10.60;99.90;;;;;;5047481;28;20061;-68
2020/12/23 03:38:44;;;;;;;28.00;15.13;;;10.60;99.90;;;;;;5041629;28;20092;-68
2020/12/23 03:41:12;;;;;;;28.90;14.82;;;10.70;99.90;;;;;;5045456;28;20045;-68
2020/12/23 03:43:38;;;;;;;27.63;14.25;;;10.70;99.90;;;;;;5042875;28;20068;-68
2020/12/23 03:46:05;;;;;;;31.08;14.52;;;10.70;99.90;;;;;;5044336;28;20378;-68
2020/12/23 03:48:31;;;;;;;29.33;15.40;;;10.70;99.90;;;;;;5045067;28;20049;-67
2020/12/23 03:50:58;;;;;;;33.65;15.95;;;10.70;99.90;;;;;;5043767;28;20148;-68
2020/12/23 03:53:24;;;;;;;36.50;16.58;;;10.70;99.90;;;;;;5065563;28;20045;-68
2020/12/23 03:55:51;;;;;;;37.25;17.38;;;10.70;99.90;;;;;;5045886;28;20057;-68
2020/12/23 03:58:18;;;;;;;36.10;16.92;;;10.70;99.90;;;;;;5046720;28;20717;-68
2020/12/23 04:00:44;;;;;;;30.02;16.52;;;10.70;99.90;;;;;;5044318;28;20053;-68
2020/12/23 04:03:11;;;;;;;34.20;16.08;;;10.80;99.90;;;;;;5048880;28;20091;-68
2020/12/23 04:05:38;;;;;;;33.60;14.80;;;10.80;99.90;;;;;;5047672;28;20224;-68
2020/12/23 04:08:05;;;;;;;29.20;16.15;;;10.80;99.90;;;;;;5076117;28;20060;-68
2020/12/23 04:10:32;;;;;;;29.25;15.23;;;10.80;99.90;;;;;;5047208;28;20041;-68
2020/12/23 04:12:59;;;;;;;30.23;15.30;;;10.80;99.90;;;;;;5043398;28;20548;-68
2020/12/23 04:15:26;;;;;;;31.00;16.38;;;10.80;99.90;;;;;;5047130;28;20095;-68
2020/12/23 04:17:54;;;;;;;31.65;16.30;;;10.90;99.90;;;;;;5047156;28;20454;-68
2020/12/23 04:20:21;;;;;;;30.77;14.82;;;10.90;99.90;;;;;;5047234;28;20053;-68
2020/12/23 04:22:47;;;;;;;29.63;15.52;;;10.90;99.90;;;;;;5040423;28;20106;-68
2020/12/23 04:25:13;;;;;;;28.08;15.40;;;10.90;99.90;;;;;;5049091;28;20069;-68
2020/12/23 04:27:40;;;;;;;28.65;16.00;;;10.90;99.90;;;;;;5041948;28;20050;-68
2020/12/23 04:30:08;;;;;;;29.13;15.75;;;10.90;99.90;;;;;;5047481;28;20132;-68
2020/12/23 04:32:35;;;;;;;29.98;15.20;;;10.90;99.90;;;;;;5046990;28;20124;-68
2020/12/23 04:35:03;;;;;;;28.80;15.48;;;11.00;99.90;;;;;;5052633;28;20121;-68
2020/12/23 04:37:31;;;;;;;27.75;15.38;;;11.00;99.90;;;;;;5049765;28;20480;-68
2020/12/23 04:39:58;;;;;;;27.60;15.03;;;11.00;99.90;;;;;;5048648;28;20044;-68
2020/12/23 04:42:25;;;;;;;27.75;15.45;;;11.00;99.90;;;;;;5046397;28;20832;-68
2020/12/23 04:44:52;;;;;;;28.00;14.60;;;11.00;99.90;;;;;;5051636;28;20118;-68
2020/12/23 04:47:25;;;;;;;27.65;14.73;;;11.00;99.90;;;;;;5045300;28;20140;-67
2020/12/23 04:49:54;;;;;;;26.63;15.15;;;11.00;99.90;;;;;;5051462;28;20573;-68
2020/12/23 04:52:34;;;;;;;;;;;11.10;99.90;;;;;;5049999;28;20068;-68
2020/12/23 04:55:04;;;;;;;21.20;12.80;;;11.10;99.90;;;;;;5068567;28;19924;-68
2020/12/23 04:57:35;;;;;;;24.60;14.07;;;11.00;99.90;;;;;;5050298;28;20124;-67
2020/12/23 05:00:06;;;;;;;21.63;12.88;;;11.10;99.90;;;;;;5041992;28;20056;-68
2020/12/23 05:02:33;;;;;;;24.83;14.05;;;11.10;99.90;;;;;;5046969;28;20061;-69
2020/12/23 05:05:16;;;;;;;26.55;14.30;;;11.10;99.90;;;;;;5051670;28;20518;-69
2020/12/23 05:07:43;;;;;;;22.77;13.45;;;11.10;99.90;;;;;;5047180;28;20519;-69
2020/12/23 05:10:09;;;;;;;23.17;13.57;;;11.10;99.90;;;;;;5050020;28;20064;-69
2020/12/23 05:12:36;;;;;;;23.50;13.57;;;11.10;99.90;;;;;;5046297;28;20049;-69
2020/12/23 05:15:06;;;;;;;24.15;14.20;;;11.10;99.90;;;;;;5051022;28;20057;-69
2020/12/23 05:17:34;;;;;;;21.40;12.70;;;11.10;99.90;;;;;;5048053;28;20041;-69
2020/12/23 05:20:01;;;;;;;26.27;13.98;;;11.10;99.90;;;;;;5050647;28;20106;-69
2020/12/23 05:22:29;;;;;;;24.60;14.52;;;11.10;99.90;;;;;;5049288;28;20045;-68
2020/12/23 05:24:57;;;;;;;26.00;13.60;;;11.10;99.90;;;;;;5049363;28;20199;-69
2020/12/23 05:27:24;;;;;;;24.60;13.68;;;11.10;99.90;;;;;;5048348;28;20461;-68
2020/12/23 05:29:51;;;;;;;23.73;12.63;;;11.10;99.90;;;;;;5047679;28;20053;-69
2020/12/23 05:32:22;;;;;;;24.27;13.63;;;11.10;99.90;;;;;;5046451;28;20106;-69
2020/12/23 05:34:51;;;;;;;24.20;14.65;;;11.10;99.90;;;;;;5048319;28;20076;-69
2020/12/23 05:37:21;;;;;;;24.63;13.32;;;11.20;99.90;;;;;;5046325;28;20095;-69
2020/12/23 05:39:47;;;;;;;21.90;13.57;;;11.20;99.90;;;;;;5044776;28;20110;-69
2020/12/23 05:42:18;;;;;;;24.05;14.15;;;11.20;99.90;;;;;;5048033;28;20385;-69
2020/12/23 05:44:54;;;;;;;22.77;13.00;;;11.20;99.90;;;;;;5050767;28;20075;-69
2020/12/23 05:47:23;;;;;;;20.40;12.07;;;11.20;99.90;;;;;;5047654;28;20045;-69
2020/12/23 05:49:51;;;;;;;20.60;12.10;;;11.20;99.90;;;;;;5046014;28;20053;-69
2020/12/23 05:52:21;;;;;;;20.98;12.38;;;11.20;99.90;;;;;;5046409;28;20102;-69
2020/12/23 05:54:52;;;;;;;20.92;12.02;;;11.20;99.90;;;;;;5050861;28;20045;-69
2020/12/23 05:57:22;;;;;;;20.45;11.90;;;11.20;99.90;;;;;;5045764;28;20110;-69
2020/12/23 05:59:48;;;;;;;18.88;11.73;;;11.20;99.90;;;;;;5047410;28;20056;-69
2020/12/23 06:02:18;;;;;;;19.30;12.05;;;11.20;99.90;;;;;;5047340;28;20118;-69
2020/12/23 06:04:45;;;;;;;19.13;11.73;;;11.20;99.90;;;;;;5049940;28;20056;-69
2020/12/23 06:07:12;;;;;;;19.48;11.57;;;11.20;99.90;;;;;;5045245;28;20045;-69
2020/12/23 06:09:47;;;;;;;16.48;11.05;;;11.30;99.90;;;;;;5048562;28;20087;-69
2020/12/23 06:12:17;;;;;;;14.77;9.20;;;11.30;99.90;;;;;;5047557;28;20090;-69
2020/12/23 06:14:55;;;;;;;17.33;10.52;;;11.30;99.90;;;;;;5050451;28;20178;-69
2020/12/23 06:17:25;;;;;;;15.10;10.00;;;11.30;99.90;;;;;;5046592;28;20099;-69
2020/12/23 06:19:56;;;;;;;16.17;10.00;;;11.30;99.90;;;;;;5048040;28;20053;-69
2020/12/23 06:22:25;;;;;;;16.48;10.60;;;11.30;99.90;;;;;;5048550;28;20088;-69
2020/12/23 06:24:51;;;;;;;18.10;10.32;;;11.30;99.90;;;;;;5050659;28;20056;-69
2020/12/23 06:27:18;;;;;;;14.52;9.07;;;11.30;99.90;;;;;;5046442;28;20041;-69
2020/12/23 06:29:47;;;;;;;15.07;9.38;;;11.30;99.90;;;;;;5049066;28;20053;-69
2020/12/23 06:32:22;;;;;;;14.73;9.00;;;11.30;99.90;;;;;;5046587;28;20404;-69
2020/12/23 06:35:03;;;;;;;12.70;8.00;;;11.30;99.90;;;;;;5048944;28;20081;-69
2020/12/23 06:37:31;;;;;;;14.90;8.40;;;11.30;99.90;;;;;;5038899;28;20103;-69
2020/12/23 06:39:58;;;;;;;12.98;8.32;;;11.30;99.90;;;;;;5048173;28;20205;-69
2020/12/23 06:42:27;;;;;;;14.60;9.02;;;11.30;99.90;;;;;;5048184;28;20123;-69
2020/12/23 06:44:55;;;;;;;;;;;11.30;99.90;;;;;;5081177;28;20075;-69
2020/12/23 06:47:22;;;;;;;13.85;8.48;;;11.30;99.90;;;;;;5045550;28;20058;-69
2020/12/23 06:49:49;;;;;;;13.15;8.60;;;11.30;99.90;;;;;;5048337;28;20198;-69
2020/12/23 06:52:22;;;;;;;12.73;8.38;;;11.30;99.90;;;;;;5047556;28;20053;-69
2020/12/23 06:55:01;;;;;;;15.23;9.75;;;11.30;99.90;;;;;;5046387;28;20465;-69
2020/12/23 06:57:39;;;;;;;12.88;8.45;;;11.40;99.90;;;;;;5040802;28;20476;-69
2020/12/23 07:00:12;;;;;;;10.85;6.72;;;11.40;99.90;;;;;;5048298;28;20480;-69
2020/12/23 07:02:44;;;;;;;12.57;7.72;;;11.40;99.90;;;;;;5047543;28;20170;-69
2020/12/23 07:05:11;;;;;;;13.05;8.10;;;11.40;99.90;;;;;;5049797;28;20120;-69
2020/12/23 07:07:44;;;;;;;13.63;8.20;;;11.40;99.90;;;;;;5048089;28;20098;-69
2020/12/23 07:10:15;;;;;;;16.08;9.05;;;11.40;99.90;;;;;;5049431;28;20107;-69
2020/12/23 07:12:46;;;;;;;13.82;8.77;;;11.50;99.90;;;;;;5047287;28;20052;-69
2020/12/23 07:15:18;;;;;;;14.90;9.40;;;11.50;99.90;;;;;;5049682;28;20554;-69
2020/12/23 07:17:45;;;;;;;13.20;9.23;;;11.50;99.90;;;;;;5045532;28;20053;-68
2020/12/23 07:20:13;;;;;;;12.68;7.90;;;11.50;99.90;;;;;;5048431;28;20048;-68
2020/12/23 07:22:40;;;;;;;16.58;9.38;;;11.50;99.90;;;;;;5047007;28;20052;-68
2020/12/23 07:25:07;;;;;;;13.43;8.75;;;11.60;99.90;;;;;;5048898;28;20136;-68
2020/12/23 07:27:36;;;;;;;12.73;8.65;;;11.60;99.90;;;;;;5045618;28;20125;-68
2020/12/23 07:30:08;;;;;;;12.43;8.60;;;11.60;99.90;;;;;;5047816;28;20390;-68
2020/12/23 07:32:35;;;;;;;13.68;8.27;;;11.60;99.90;;;;;;5047643;28;20053;-68
2020/12/23 07:35:04;;;;;;;12.30;7.95;;;11.60;99.90;;;;;;5049434;28;20438;-68
2020/12/23 07:37:40;;;;;;;12.13;8.07;;;11.70;99.90;;;;;;5045197;28;20435;-68
2020/12/23 07:40:15;;;;;;;12.07;8.10;;;11.70;99.90;;;;;;5048111;28;20053;-68
2020/12/23 07:42:52;;;;;;;12.60;8.82;;;11.70;99.90;;;;;;5047806;28;20451;-68
2020/12/23 07:45:19;;;;;;;13.20;9.52;;;11.70;99.90;;;;;;5037091;28;20040;-69
2020/12/23 07:48:00;;;;;;;13.23;8.75;;;11.70;99.90;;;;;;5046406;28;20053;-69
2020/12/23 07:50:30;;;;;;;15.32;10.13;;;11.80;99.90;;;;;;5047483;28;20476;-69
2020/12/23 07:52:56;;;;;;;12.38;8.35;;;11.80;99.90;;;;;;5042399;28;20427;-69
2020/12/23 07:55:24;;;;;;;12.88;9.13;;;11.80;99.90;;;;;;5048153;28;20080;-69
2020/12/23 07:57:52;;;;;;;13.43;8.65;;;11.80;99.90;;;;;;5041880;28;20052;-69
2020/12/23 08:00:20;;;;;;;12.00;8.52;;;11.80;99.90;;;;;;5046114;28;20400;-69
2020/12/23 08:02:48;;;;;;;11.23;8.38;;;11.80;99.90;;;;;;5046190;28;20111;-69
2020/12/23 08:05:15;;;;;;;13.57;8.63;;;11.90;99.90;;;;;;5046766;28;20052;-69
2020/12/23 08:07:43;;;;;;;11.70;8.20;;;11.90;99.90;;;;;;5045991;28;20105;-69
2020/12/23 08:10:14;;;;;;;12.97;8.17;;;11.90;99.90;;;;;;5048358;28;20053;-69
2020/12/23 08:12:42;;;;;;;12.45;8.40;;;11.90;99.90;;;;;;5060765;28;20053;-69
2020/12/23 08:15:13;;;;;;;10.77;7.68;;;11.90;99.90;;;;;;5051513;28;20045;-69
2020/12/23 08:17:40;;;;;;;12.07;8.10;;;11.90;99.90;;;;;;5046766;28;20064;-69
2020/12/23 08:20:13;;;;;;;11.30;7.95;;;11.90;99.90;;;;;;5049062;28;20461;-69
2020/12/23 08:22:44;;;;;;;10.23;7.47;;;11.90;99.90;;;;;;5063120;28;20064;-69
2020/12/23 08:25:15;;;;;;;10.88;7.65;;;11.90;99.90;;;;;;5050304;28;20083;-69
2020/12/23 08:27:46;;;;;;;11.00;7.55;;;11.90;99.90;;;;;;5046532;28;20365;-69
2020/12/23 08:30:23;;;;;;;9.50;7.20;;;11.90;99.90;;;;;;5047758;28;20077;-69
2020/12/23 08:32:52;;;;;;;11.77;8.07;;;11.90;99.90;;;;;;5043365;28;20515;-69
2020/12/23 08:35:20;;;;;;;10.35;8.00;;;11.90;99.90;;;;;;5065341;28;20524;-69
2020/12/23 08:37:46;;;;;;;10.52;7.68;;;11.90;99.90;;;;;;5043807;28;20060;-69
2020/12/23 08:40:14;;;;;;;11.82;8.35;;;11.90;99.90;;;;;;5046705;28;20052;-69
2020/12/23 08:42:54;;;;;;;15.43;8.48;;;11.90;99.90;;;;;;5041589;28;20095;-70
2020/12/23 08:45:23;;;;;;;11.75;8.20;;;11.90;99.90;;;;;;5048512;28;20056;-70
2020/12/23 08:47:50;;;;;;;12.07;8.27;;;11.90;99.90;;;;;;5056864;28;20061;-70
2020/12/23 08:50:21;;;;;;;10.98;7.95;;;11.90;99.90;;;;;;5048365;28;20103;-70
2020/12/23 08:52:50;;;;;;;11.15;8.10;;;11.90;99.90;;;;;;5047410;28;20424;-69
2020/12/23 08:55:23;;;;;;;11.48;8.20;;;11.90;99.90;;;;;;5047218;28;20480;-69
2020/12/23 08:58:06;;;;;;;11.07;8.00;;;11.90;99.90;;;;;;5044094;28;20057;-70
2020/12/23 09:00:32;;;;;;;12.15;8.45;;;12.00;99.90;;;;;;5043293;28;20053;-69
2020/12/23 09:02:59;;;;;;;11.35;8.52;;;11.90;99.90;;;;;;5082108;28;20084;-69
2020/12/23 09:05:39;;;;;;;12.48;8.68;;;12.00;99.90;;;;;;5049775;28;20075;-70
2020/12/23 09:08:06;;;;;;;14.63;9.05;;;12.00;99.90;;;;;;5074986;28;20057;-70
2020/12/23 09:10:34;;;;;;;12.03;7.93;;;12.00;99.90;;;;;;5043698;28;20134;-70
2020/12/23 09:13:18;;;;;;;13.07;8.77;;;12.00;99.90;;;;;;5039697;28;20373;-70
2020/12/23 09:15:52;;;;;;;12.32;8.00;;;12.00;99.90;;;;;;5045585;28;20431;-69
2020/12/23 09:18:19;;;;;;;13.20;8.43;;;12.00;99.90;;;;;;5044584;28;20110;-69
2020/12/23 09:20:45;;;;;;;10.98;7.78;;;12.00;99.90;;;;;;5045981;28;20134;-69
2020/12/23 09:23:19;;;;;;;12.13;7.53;;;12.00;99.90;;;;;;5049323;28;20493;-69
2020/12/23 09:25:45;;;;;;;11.23;7.53;;;12.00;99.90;;;;;;5046548;28;20066;-69
2020/12/23 09:28:13;;;;;;;10.07;7.15;;;12.10;99.90;;;;;;5065150;28;20045;-69
2020/12/23 09:30:45;;;;;;;10.23;7.23;;;12.10;99.90;;;;;;5048044;28;20045;-69
2020/12/23 09:33:15;;;;;;;10.25;7.32;;;12.10;99.90;;;;;;5075994;28;20060;-69
2020/12/23 09:35:44;;;;;;;10.52;7.15;;;12.10;99.90;;;;;;5048107;28;20053;-69
2020/12/23 09:38:19;;;;;;;9.93;6.15;;;12.10;99.90;;;;;;5047960;28;20052;-69
2020/12/23 09:40:52;;;;;;;10.50;6.45;;;12.10;99.90;;;;;;5046719;28;20059;-69
2020/12/23 09:43:25;;;;;;;9.88;6.55;;;12.10;99.90;;;;;;5049066;28;20045;-69
2020/12/23 09:45:54;;;;;;;8.10;6.00;;;12.10;99.90;;;;;;5041401;28;20486;-69
2020/12/23 09:48:23;;;;;;;9.80;5.60;;;12.10;99.90;;;;;;5065073;28;20487;-69
2020/12/23 09:50:54;;;;;;;8.35;5.32;;;12.10;99.90;;;;;;5047474;28;20598;-69
2020/12/23 09:53:22;;;;;;;7.35;5.15;;;12.10;99.90;;;;;;5064150;28;20045;-69
2020/12/23 09:55:49;;;;;;;8.95;5.57;;;12.10;99.90;;;;;;5045460;28;20084;-69
2020/12/23 09:58:17;;;;;;;7.22;5.32;;;12.10;99.90;;;;;;5080731;28;20052;-69
2020/12/23 10:00:45;;;;;;;7.65;5.68;;;12.10;99.90;;;;;;5047588;28;20045;-69
2020/12/23 10:03:12;;;;;;;9.13;4.93;;;12.10;99.90;;;;;;5079705;28;20103;-69
2020/12/23 10:05:40;;;;;;;6.43;4.68;;;12.10;99.90;;;;;;5047102;28;20052;-69
2020/12/23 10:08:07;;;;;;;6.15;4.55;;;12.10;99.90;;;;;;5080685;28;20518;-69
2020/12/23 10:10:35;;;;;;;5.75;3.80;;;12.10;99.90;;;;;;5048407;28;20431;-69
2020/12/23 10:13:02;;;;;;;6.38;3.60;;;12.10;99.90;;;;;;5065096;28;20484;-69
2020/12/23 10:15:28;;;;;;;6.70;4.20;;;12.10;99.90;;;;;;5049358;28;20045;-69
2020/12/23 10:17:55;;;;;;;5.80;4.35;;;12.10;99.90;;;;;;5046745;28;20114;-69
2020/12/23 10:20:21;;;;;;;7.75;3.63;;;12.10;99.90;;;;;;5042882;28;20044;-69
2020/12/23 10:22:47;;;;;;;5.05;3.80;;;12.10;99.90;;;;;;5046873;28;20087;-69
2020/12/23 10:25:14;;;;;;;4.97;3.53;;;12.10;99.90;;;;;;5049214;28;20061;-69
2020/12/23 10:27:40;;;;;;;4.55;2.90;;;12.10;99.90;;;;;;5061410;28;20103;-69
2020/12/23 10:30:08;;;;;;;4.15;3.10;;;12.10;99.90;;;;;;5048677;28;20060;-69
2020/12/23 10:32:35;;;;;;;4.05;2.80;;;12.10;99.90;;;;;;5046462;28;20072;-68
2020/12/23 10:35:03;;;;;;;4.40;3.00;;;12.10;99.90;;;;;;5049305;28;20061;-68
2020/12/23 10:37:30;;;;;;;4.15;2.75;;;12.10;99.90;;;;;;5046990;28;20408;-68
2020/12/23 10:39:57;;;;;;;5.32;3.03;;;12.10;99.90;;;;;;5047683;28;20496;-68
2020/12/23 10:42:29;;;;;;;5.47;2.70;;;12.10;99.90;;;;;;5047058;28;20057;-69
2020/12/23 10:44:56;;;;;;;5.28;3.00;;;12.00;99.90;;;;;;5049000;28;20061;-68
2020/12/23 10:47:33;;;;;;;4.15;2.78;;;12.00;99.90;;;;;;5047497;28;20475;-69
2020/12/23 10:50:00;;;;;;;3.97;2.70;;;12.00;99.90;;;;;;5047750;28;20045;-69
2020/12/23 10:52:27;;;;;;;4.15;2.78;;;12.00;99.90;;;;;;5046072;28;20049;-69
2020/12/23 10:54:54;;;;;;;4.40;2.78;;;12.00;99.90;;;;;;5049015;28;20048;-69
2020/12/23 10:57:20;;;;;;;5.00;2.92;;;11.90;99.90;;;;;;5044960;28;20048;-69
2020/12/23 10:59:47;;;;;;;5.03;2.70;;;11.90;99.90;;;;;;5046281;28;20460;-69
2020/12/23 11:02:13;;;;;;;4.22;2.88;;;11.90;99.90;;;;;;5043077;28;20045;-69
2020/12/23 11:04:39;;;;;;;3.67;2.20;;;11.90;99.90;;;;;;5048596;28;20127;-69
2020/12/23 11:07:06;;;;;;;4.28;2.63;;;11.80;99.90;;;;;;5044293;28;20115;-69
2020/12/23 11:09:32;;;;;;;4.72;3.08;;;11.80;99.90;;;;;;5046900;28;20102;-69
2020/12/23 11:11:58;;;;;;;3.50;2.58;;;11.80;99.90;;;;;;5045017;28;20049;-68
2020/12/23 11:14:25;;;;;;;3.65;2.35;;;11.80;99.90;;;;;;5047878;28;20500;-69
2020/12/23 11:16:51;;;;;;;3.65;2.53;;;11.80;99.90;;;;;;5044065;28;20085;-69
2020/12/23 11:19:18;;;;;;;3.10;2.42;;;11.90;99.90;;;;;;5046911;28;20083;-69
2020/12/23 11:21:46;;;;;;;3.30;2.47;;;11.90;99.90;;;;;;5043722;28;20137;-69
2020/12/23 11:24:12;;;;;;;4.03;2.40;;;11.90;99.90;;;;;;5042461;28;20823;-69
2020/12/23 11:26:39;;;;;;;3.63;2.72;;;11.90;99.90;;;;;;5040845;28;20065;-69
2020/12/23 11:29:05;;;;;;;3.85;2.90;;;11.90;99.90;;;;;;5046339;28;20048;-69
2020/12/23 11:31:33;;;;;;;6.43;2.75;;;11.90;99.90;;;;;;5043205;28;20064;-69
2020/12/23 11:34:00;;;;;;;4.10;2.58;;;12.00;99.90;;;;;;5047906;28;20099;-69
2020/12/23 11:36:27;;;;;;;5.07;2.60;;;12.00;99.90;;;;;;5045125;28;20411;-69
2020/12/23 11:38:58;;;;;;;4.25;2.78;;;12.00;99.90;;;;;;5042538;28;20186;-69
2020/12/23 11:41:24;;;;;;;3.50;2.60;;;12.00;99.90;;;;;;5075451;28;20081;-69
2020/12/23 11:43:51;;;;;;;4.35;3.22;;;12.00;99.90;;;;;;5051177;28;20044;-69
2020/12/23 11:46:17;;;;;;;6.80;2.80;;;12.00;99.90;;;;;;5048184;28;20057;-69
2020/12/23 11:48:43;;;;;;;3.63;2.88;;;12.00;99.90;;;;;;5052348;28;20721;-69
2020/12/23 11:51:10;;;;;;;4.47;3.30;;;12.00;99.90;;;;;;5049000;28;20512;-69
2020/12/23 11:53:37;;;;;;;5.05;3.33;;;12.00;99.90;;;;;;5052326;28;20142;-68
2020/12/23 11:56:04;;;;;;;3.88;3.13;;;12.00;99.90;;;;;;5049059;28;20422;-68
2020/12/23 11:58:31;;;;;;;5.32;2.80;;;12.00;99.90;;;;;;5048703;28;20102;-68
2020/12/23 12:00:57;;;;;;;4.13;3.05;;;12.00;99.90;;;;;;5049097;28;20541;-68
2020/12/23 12:03:23;;;;;;;4.22;3.13;;;12.00;99.90;;;;;;5051064;28;20589;-68
2020/12/23 12:05:53;;;;;;;3.70;2.90;;;12.00;99.90;;;;;;5049433;28;20103;-68
2020/12/23 12:08:23;;;;;;;4.43;3.25;;;12.00;99.90;;;;;;5051082;28;20107;-68
2020/12/23 12:10:56;;;;;;;4.82;3.10;;;12.00;99.90;;;;;;5049666;28;20064;-68
2020/12/23 12:13:23;;;;;;;4.82;3.00;;;12.00;99.90;;;;;;5051542;28;20072;-69
2020/12/23 12:15:50;;;;;;;4.65;3.22;;;12.00;99.90;;;;;;5048494;28;20380;-68
2020/12/23 12:18:17;;;;;;;3.78;2.63;;;12.00;99.90;;;;;;5050432;28;20241;-68
2020/12/23 12:20:43;;;;;;;5.47;3.38;;;12.00;99.90;;;;;;5048420;28;20155;-68
2020/12/23 12:23:10;;;;;;;5.18;3.20;;;12.00;99.90;;;;;;5049902;28;20111;-68
2020/12/23 12:25:36;;;;;;;4.72;3.00;;;12.00;99.90;;;;;;5047010;28;20048;-68
2020/12/23 12:28:03;;;;;;;4.93;3.72;;;12.00;99.90;;;;;;5049041;28;20053;-68
2020/12/23 12:30:30;;;;;;;4.32;3.30;;;12.00;99.90;;;;;;5048314;28;20098;-68
2020/12/23 12:32:57;;;;;;;4.68;3.30;;;12.00;99.90;;;;;;5045290;28;20045;-68
2020/12/23 12:35:24;;;;;;;4.78;3.40;;;12.00;99.90;;;;;;5048526;28;20039;-68
2020/12/23 12:37:51;;;;;;;4.40;3.35;;;12.00;99.90;;;;;;5042529;28;20451;-68
2020/12/23 12:40:18;;;;;;;7.20;4.10;;;12.00;99.90;;;;;;5062564;28;20059;-69